Time;durP1;ratioP1;P1;durP2;ratioP2;P2;SDS_P1;SDS_P2;PMS_P1;PMS_P2;Temp;Humidity;BMP_temperature;BMP_pressure;BME280_temperature;BME280_humidity;BME280_pressure;Samples;Min_cycle;Max_cycle;Signal;HPM_P1;HPM_P2
2022/01/09 00:01:52;;;;;;;2.20;1.53;;;;;;;3.21;100.00;152189.50;4971861;28;20441;-75
2022/01/09 00:04:28;;;;;;;2.07;1.43;;;;;;;3.18;100.00;152180.53;4971812;28;20995;-75
2022/01/09 00:07:05;;;;;;;1.40;1.30;;;;;;;3.16;100.00;152175.34;4990712;28;20710;-75
2022/01/09 00:09:44;;;;;;;1.73;1.10;;;;;;;3.20;100.00;152186.97;4985284;28;20571;-76
2022/01/09 00:12:19;;;;;;;1.13;0.90;;;;;;;3.19;100.00;152183.06;4990324;28;20450;-76
2022/01/09 00:14:55;;;;;;;0.70;0.50;;;;;;;3.32;100.00;152217.81;5006338;28;20451;-75
2022/01/09 00:17:31;;;;;;;0.93;0.67;;;;;;;3.34;100.00;152222.97;4990872;28;20447;-76
2022/01/09 00:20:08;;;;;;;0.80;0.50;;;;;;;3.29;100.00;152210.09;4991008;28;20805;-76
2022/01/09 00:22:47;;;;;;;1.00;0.53;;;;;;;3.30;100.00;152212.69;4990180;28;20553;-75
2022/01/09 00:25:24;;;;;;;0.87;0.50;;;;;;;3.37;100.00;152230.69;5006692;28;20440;-76
2022/01/09 00:27:59;;;;;;;0.60;0.40;;;;;;;3.40;100.00;152238.41;4991112;28;20474;-76
2022/01/09 00:30:36;;;;;;;0.70;0.40;;;;;;;3.39;100.00;152235.81;4974875;28;20529;-75
2022/01/09 00:33:11;;;;;;;0.73;0.40;;;;;;;3.38;100.00;152233.28;5006622;28;20533;-76
2022/01/09 00:35:46;;;;;;;1.40;0.60;;;;;;;3.26;100.00;152201.06;5007399;28;20776;-76
2022/01/09 00:38:23;;;;;;;0.60;0.30;;;;;;;3.31;100.00;152215.22;5007258;28;20485;-76
2022/01/09 00:40:59;;;;;;;0.90;0.50;;;;;;;3.29;100.00;152208.81;4992553;28;20456;-76
2022/01/09 00:43:35;;;;;;;1.33;0.50;;;;;;;3.28;100.00;152206.25;5003455;28;20943;-76
2022/01/09 00:46:10;;;;;;;1.07;0.60;;;;;;;3.36;100.00;152226.84;5015112;28;20446;-76
2022/01/09 00:48:46;;;;;;;1.40;0.47;;;;;;;3.26;100.00;152202.38;4989745;28;20483;-76
2022/01/09 00:51:23;;;;;;;0.80;0.30;;;;;;;3.33;100.00;152220.41;5007195;28;20809;-76
2022/01/09 00:54:00;;;;;;;0.80;0.40;;;;;;;3.34;100.00;152221.66;4998094;28;20953;-76
2022/01/09 00:56:35;;;;;;;0.70;0.40;;;;;;;3.30;100.00;152211.41;5007283;28;20447;-76
2022/01/09 00:59:10;;;;;;;0.93;0.50;;;;;;;3.32;100.00;152217.81;4993364;28;20479;-75
2022/01/09 01:01:46;;;;;;;0.60;0.30;;;;;;;3.37;100.00;152230.69;4991216;28;20454;-75
2022/01/09 01:04:21;;;;;;;1.30;0.50;;;;;;;3.37;100.00;152230.69;4988708;28;20470;-76
2022/01/09 01:06:57;;;;;;;0.70;0.40;;;;;;;3.37;100.00;152229.41;4988695;28;20527;-76
2022/01/09 01:09:34;;;;;;;1.07;0.40;;;;;;;3.37;100.00;152230.69;4993827;28;20468;-76
2022/01/09 01:12:10;;;;;;;0.70;0.40;;;;;;;3.47;100.00;152256.44;5008913;28;20943;-76
2022/01/09 01:14:46;;;;;;;0.80;0.30;;;;;;;3.45;100.00;152251.28;4994372;28;20443;-75
2022/01/09 01:17:22;;;;;;;0.87;0.37;;;;;;;3.54;100.00;152274.47;5005766;28;20526;-76
2022/01/09 01:19:57;;;;;;;2.90;0.50;;;;;;;3.48;100.00;152259.00;5007656;28;20482;-76
2022/01/09 01:22:34;;;;;;;0.57;0.27;;;;;;;3.46;100.00;152253.88;5008497;28;20447;-76
2022/01/09 01:25:11;;;;;;;0.67;0.23;;;;;;;3.45;100.00;152251.28;4992044;28;20790;-76
2022/01/09 01:27:47;;;;;;;0.97;0.50;;;;;;;3.45;100.00;152250.00;5004840;28;20770;-76
2022/01/09 01:30:23;;;;;;;0.80;0.50;;;;;;;3.45;100.00;152251.28;5023136;28;20472;-76
2022/01/09 01:32:59;;;;;;;0.70;0.53;;;;;;;3.48;100.00;152259.00;4992046;28;20805;-76
2022/01/09 01:35:34;;;;;;;1.30;0.70;;;;;;;3.50;100.00;152262.84;4993744;28;20416;-75
2022/01/09 01:38:10;;;;;;;1.33;0.60;;;;;;;3.52;100.00;152269.28;4991600;28;20517;-75
2022/01/09 01:40:47;;;;;;;0.80;0.40;;;;;;;3.51;100.00;152266.75;5008249;28;20661;-75
2022/01/09 01:43:22;;;;;;;0.60;0.37;;;;;;;3.51;100.00;152266.75;4995373;28;20450;-75
2022/01/09 01:46:01;;;;;;;1.10;0.60;;;;;;;3.52;100.00;152269.28;5012528;28;20931;-76
2022/01/09 01:48:37;;;;;;;0.90;0.40;;;;;;;3.53;100.00;152271.88;5012337;28;20967;-75
2022/01/09 01:51:12;;;;;;;0.50;0.20;;;;;;;3.50;100.00;152262.84;4996248;28;20459;-75
2022/01/09 01:53:48;;;;;;;0.60;0.30;;;;;;;3.54;100.00;152274.47;4995971;28;20463;-75
2022/01/09 01:56:25;;;;;;;0.70;0.30;;;;;;;3.58;100.00;152284.75;4980442;28;20470;-75
2022/01/09 01:59:01;;;;;;;0.60;0.30;;;;;;;3.63;100.00;152297.63;5011940;28;20482;-75
2022/01/09 02:01:36;;;;;;;1.17;0.37;;;;;;;3.61;100.00;152291.19;5011667;28;20446;-75
2022/01/09 02:04:12;;;;;;;0.70;0.30;;;;;;;3.57;100.00;152282.16;4996088;28;20452;-75
2022/01/09 02:06:48;;;;;;;0.60;0.30;;;;;;;3.58;100.00;152284.75;5011915;28;20454;-75
2022/01/09 02:09:24;;;;;;;0.73;0.30;;;;;;;3.54;100.00;152274.47;5006348;28;20547;-75
2022/01/09 02:12:01;;;;;;;0.70;0.30;;;;;;;3.57;100.00;152282.16;4980256;28;20538;-75
2022/01/09 02:14:37;;;;;;;0.70;0.37;;;;;;;3.58;100.00;152283.47;5012114;28;20447;-75
2022/01/09 02:17:17;;;;;;;0.60;0.20;;;;;;;3.61;100.00;152292.47;5011947;28;20805;-75
2022/01/09 02:19:54;;;;;;;2.40;0.30;;;;;;;3.66;100.00;152305.34;5010102;28;20860;-75
2022/01/09 02:22:32;;;;;;;0.50;0.20;;;;;;;3.63;100.00;152297.63;4995965;28;20424;-75
2022/01/09 02:25:09;;;;;;;0.50;0.20;;;;;;;3.57;100.00;152282.16;4995491;28;20852;-75
2022/01/09 02:27:44;;;;;;;0.53;0.20;;;;;;;3.61;100.00;152291.19;4979847;28;20448;-75
2022/01/09 02:30:20;;;;;;;0.50;0.20;;;;;;;3.66;100.00;152304.06;4995470;28;20451;-75
2022/01/09 02:32:55;;;;;;;0.50;0.20;;;;;;;3.59;100.00;152287.34;4995306;28;20443;-75
2022/01/09 02:35:32;;;;;;;0.60;0.30;;;;;;;3.57;100.00;152282.16;4995253;28;20444;-75
2022/01/09 02:38:08;;;;;;;0.90;0.47;;;;;;;3.55;100.00;152275.72;5010249;28;20502;-75
2022/01/09 02:40:43;;;;;;;0.50;0.20;;;;;;;3.53;100.00;152270.59;5009872;28;20558;-76
2022/01/09 02:43:19;;;;;;;0.50;0.20;;;;;;;3.57;100.00;152282.16;4975891;28;20544;-75
2022/01/09 02:46:04;;;;;;;1.47;0.30;;;;;;;3.52;100.00;152269.28;4994426;28;20531;-75
2022/01/09 02:48:40;;;;;;;0.87;0.20;;;;;;;3.50;100.00;152264.16;4996260;28;20499;-75
2022/01/09 02:51:18;;;;;;;0.50;0.20;;;;;;;3.55;100.00;152277.03;4994983;28;20466;-75
2022/01/09 02:54:07;;;;;;;0.73;0.40;;;;;;;3.54;100.00;152274.47;4993916;28;20546;-75
2022/01/09 02:56:43;;;;;;;0.50;0.20;;;;;;;3.57;100.00;152280.91;5011687;28;20478;-75
2022/01/09 02:59:18;;;;;;;1.00;0.37;;;;;;;3.38;100.00;152233.28;5008209;28;20515;-75
2022/01/09 03:01:54;;;;;;;0.70;0.20;;;;;;;3.45;100.00;152251.28;5001354;28;20495;-75
2022/01/09 03:04:29;;;;;;;0.50;0.23;;;;;;;3.51;100.00;152266.75;5010904;28;20447;-75
2022/01/09 03:07:07;;;;;;;0.80;0.30;;;;;;;3.40;100.00;152238.41;5011528;28;20434;-75
2022/01/09 03:09:42;;;;;;;0.60;0.20;;;;;;;3.39;100.00;152235.81;5006554;28;20941;-75
2022/01/09 03:12:18;;;;;;;0.80;0.40;;;;;;;3.36;100.00;152228.09;4994678;28;20778;-75
2022/01/09 03:14:53;;;;;;;0.70;0.40;;;;;;;3.28;100.00;152207.56;5007760;28;20452;-75
2022/01/09 03:17:29;;;;;;;0.70;0.40;;;;;;;3.38;100.00;152232.00;4991566;28;20427;-75
2022/01/09 03:20:06;;;;;;;0.70;0.30;;;;;;;3.41;100.00;152239.72;4995099;28;20471;-76
2022/01/09 03:22:43;;;;;;;0.70;0.40;;;;;;;3.32;100.00;152217.81;5010580;28;20548;-75
2022/01/09 03:25:19;;;;;;;0.60;0.30;;;;;;;3.27;100.00;152203.66;5027307;28;20454;-75
2022/01/09 03:27:55;;;;;;;0.70;0.40;;;;;;;3.29;100.00;152210.09;4989461;28;20510;-76
2022/01/09 03:30:30;;;;;;;1.73;0.60;;;;;;;3.40;100.00;152238.41;4992039;28;20528;-75
2022/01/09 03:33:06;;;;;;;0.60;0.20;;;;;;;3.51;100.00;152266.75;5009874;28;20460;-75
2022/01/09 03:35:42;;;;;;;0.60;0.30;;;;;;;3.48;100.00;152259.00;5010611;28;20431;-75
2022/01/09 03:38:19;;;;;;;0.60;0.30;;;;;;;3.44;100.00;152247.44;4979243;28;20443;-75
2022/01/09 03:40:54;;;;;;;0.80;0.43;;;;;;;3.40;100.00;152238.41;5010094;28;20481;-75
2022/01/09 03:43:30;;;;;;;0.50;0.20;;;;;;;3.45;100.00;152251.28;5026708;28;20791;-75
2022/01/09 03:46:05;;;;;;;1.13;0.30;;;;;;;3.52;100.00;152269.28;4978904;28;20962;-75
2022/01/09 03:48:41;;;;;;;0.90;0.40;;;;;;;3.48;100.00;152259.00;5010127;28;20509;-75
2022/01/09 03:51:16;;;;;;;0.90;0.40;;;;;;;3.48;100.00;152259.00;5009044;28;20478;-75
2022/01/09 03:53:53;;;;;;;1.00;0.30;;;;;;;3.54;100.00;152274.47;5026114;28;20464;-75
2022/01/09 03:56:29;;;;;;;0.70;0.30;;;;;;;3.52;100.00;152268.03;4995225;28;20506;-75
2022/01/09 03:59:04;;;;;;;1.17;0.50;;;;;;;3.44;100.00;152248.69;5026553;28;20570;-75
2022/01/09 04:01:40;;;;;;;0.90;0.40;;;;;;;3.49;100.00;152261.59;4994533;28;20923;-75
2022/01/09 04:04:16;;;;;;;0.80;0.30;;;;;;;3.45;100.00;152251.28;5009696;28;20471;-75
2022/01/09 04:06:51;;;;;;;0.60;0.30;;;;;;;3.42;100.00;152243.56;4993570;28;20444;-75
2022/01/09 04:09:38;;;;;;;0.80;0.40;;;;;;;3.49;100.00;152261.59;4992737;28;20461;-75
2022/01/09 04:12:17;;;;;;;0.60;0.30;;;;;;;3.50;100.00;152262.84;5009326;28;20444;-75
2022/01/09 04:14:52;;;;;;;0.80;0.43;;;;;;;3.48;100.00;152259.00;4989969;28;20547;-75
2022/01/09 04:17:37;;;;;;;0.83;0.40;;;;;;;3.48;100.00;152259.00;4988959;28;20898;-75
2022/01/09 04:20:12;;;;;;;0.80;0.30;;;;;;;3.50;100.00;152264.16;4989978;28;20846;-76
2022/01/09 04:22:49;;;;;;;0.70;0.47;;;;;;;3.47;100.00;152256.44;4998800;28;20456;-75
2022/01/09 04:25:26;;;;;;;0.90;0.50;;;;;;;3.52;100.00;152269.28;4993125;28;20929;-75
2022/01/09 04:28:02;;;;;;;0.77;0.40;;;;;;;3.49;100.00;152261.59;4994586;28;20455;-76
2022/01/09 04:30:37;;;;;;;0.70;0.40;;;;;;;3.52;100.00;152268.03;5026391;28;20436;-75
2022/01/09 04:33:13;;;;;;;0.80;0.40;;;;;;;3.51;100.00;152266.75;5008957;28;20444;-75
2022/01/09 04:35:49;;;;;;;0.70;0.37;;;;;;;3.55;100.00;152277.03;4992760;28;20432;-75
2022/01/09 04:38:24;;;;;;;0.70;0.40;;;;;;;3.52;100.00;152269.28;5009118;28;20460;-75
2022/01/09 04:41:01;;;;;;;0.60;0.30;;;;;;;3.62;100.00;152295.06;5009294;28;20435;-75
2022/01/09 04:43:37;;;;;;;0.70;0.30;;;;;;;3.57;100.00;152280.91;4973583;28;20453;-75
2022/01/09 04:46:18;;;;;;;0.90;0.50;;;;;;;3.49;100.00;152261.59;4989715;28;20500;-75
2022/01/09 04:48:55;;;;;;;0.60;0.30;;;;;;;3.51;100.00;152266.75;4973588;28;21047;-75
2022/01/09 04:51:30;;;;;;;0.70;0.20;;;;;;;3.56;100.00;152279.63;4978578;28;20455;-75
2022/01/09 04:54:06;;;;;;;0.70;0.30;;;;;;;3.58;100.00;152284.75;4977357;28;20451;-75
2022/01/09 04:56:43;;;;;;;0.50;0.20;;;;;;;3.50;100.00;152262.84;5002953;28;20538;-75
2022/01/09 04:59:18;;;;;;;0.60;0.27;;;;;;;3.47;100.00;152255.13;5008907;28;20473;-75
2022/01/09 05:01:54;;;;;;;0.70;0.30;;;;;;;3.50;100.00;152262.84;4992511;28;20446;-75
2022/01/09 05:04:29;;;;;;;0.60;0.20;;;;;;;3.40;100.00;152238.41;4992782;28;20893;-75
2022/01/09 05:07:06;;;;;;;1.00;0.20;;;;;;;3.40;100.00;152237.13;4992636;28;20432;-75
2022/01/09 05:09:41;;;;;;;0.60;0.20;;;;;;;3.37;100.00;152229.41;4992794;28;20478;-75
2022/01/09 05:12:18;;;;;;;0.70;0.23;;;;;;;3.27;100.00;152203.66;5009277;28;20955;-75
2022/01/09 05:14:54;;;;;;;0.50;0.20;;;;;;;3.19;100.00;152184.38;4992612;28;20824;-75
2022/01/09 05:17:29;;;;;;;0.50;0.20;;;;;;;3.24;100.00;152197.22;5008059;28;20462;-75
2022/01/09 05:20:06;;;;;;;0.50;0.20;;;;;;;3.17;100.00;152179.22;4992130;28;20489;-75
2022/01/09 05:22:41;;;;;;;0.60;0.27;;;;;;;3.15;100.00;152172.81;5007444;28;20452;-75
2022/01/09 05:25:17;;;;;;;0.50;0.20;;;;;;;3.13;100.00;152167.63;4992563;28;20793;-75
2022/01/09 05:27:54;;;;;;;0.60;0.20;;;;;;;3.06;100.00;152150.91;4992467;28;20470;-75
2022/01/09 05:30:30;;;;;;;0.60;0.30;;;;;;;3.05;100.00;152148.31;5024738;28;20440;-75
2022/01/09 05:33:06;;;;;;;1.23;0.20;;;;;;;3.09;100.00;152158.66;5008586;28;20447;-75
2022/01/09 05:35:41;;;;;;;0.60;0.30;;;;;;;2.99;100.00;152134.16;5008121;28;20537;-75
2022/01/09 05:38:18;;;;;;;0.60;0.30;;;;;;;3.00;100.00;152135.47;4976605;28;20442;-75
2022/01/09 05:40:53;;;;;;;0.50;0.20;;;;;;;2.92;100.00;152116.16;4975580;28;20467;-75
2022/01/09 05:43:31;;;;;;;0.57;0.30;;;;;;;2.91;100.00;152112.34;4973358;28;20453;-77
2022/01/09 05:46:07;;;;;;;0.53;0.20;;;;;;;2.90;100.00;152111.03;5000566;28;20442;-75
2022/01/09 05:48:43;;;;;;;0.53;0.20;;;;;;;2.88;100.00;152105.91;5006454;28;20477;-75
2022/01/09 05:51:18;;;;;;;0.60;0.20;;;;;;;2.82;100.00;152090.44;4992951;28;20445;-75
2022/01/09 05:53:54;;;;;;;0.50;0.20;;;;;;;2.82;100.00;152090.44;5007080;28;21008;-75
2022/01/09 05:56:30;;;;;;;0.60;0.20;;;;;;;2.82;100.00;152090.44;5007818;28;20448;-75
2022/01/09 05:59:07;;;;;;;1.60;0.50;;;;;;;2.79;100.00;152081.44;5006889;28;20447;-75
2022/01/09 06:01:42;;;;;;;0.70;0.30;;;;;;;2.78;100.00;152078.88;5007819;28;20488;-75
2022/01/09 06:04:18;;;;;;;0.70;0.40;;;;;;;2.71;100.00;152060.84;5008044;28;20464;-75
2022/01/09 06:06:54;;;;;;;0.60;0.20;;;;;;;2.69;100.00;152055.72;5006044;28;20449;-76
2022/01/09 06:09:30;;;;;;;0.73;0.33;;;;;;;2.67;100.00;152050.56;4990917;28;20532;-75
2022/01/09 06:12:07;;;;;;;0.80;0.20;;;;;;;2.70;100.00;152058.31;4991230;28;20434;-76
2022/01/09 06:14:44;;;;;;;0.60;0.20;;;;;;;2.73;100.00;152065.97;4999022;28;20773;-75
2022/01/09 06:17:19;;;;;;;0.70;0.30;;;;;;;2.68;100.00;152054.41;5027541;28;20450;-75
2022/01/09 06:19:55;;;;;;;0.83;0.60;;;;;;;2.63;100.00;152041.56;5008262;28;20482;-75
2022/01/09 06:22:31;;;;;;;1.77;0.30;;;;;;;2.67;100.00;152051.88;4991290;28;20453;-76
2022/01/09 06:25:07;;;;;;;1.20;0.70;;;;;;;2.69;100.00;152055.72;5008052;28;20453;-75
2022/01/09 06:27:43;;;;;;;1.00;0.30;;;;;;;2.66;100.00;152048.00;4992010;28;20451;-75
2022/01/09 06:30:20;;;;;;;0.60;0.30;;;;;;;2.65;100.00;152045.44;4993931;28;20526;-75
2022/01/09 06:32:55;;;;;;;0.60;0.30;;;;;;;2.64;100.00;152044.16;4996678;28;20457;-75
2022/01/09 06:35:31;;;;;;;0.87;0.47;;;;;;;2.63;100.00;152040.25;5011668;28;20461;-75
2022/01/09 06:38:07;;;;;;;0.70;0.40;;;;;;;2.61;100.00;152035.13;5009830;28;20459;-75
2022/01/09 06:40:42;;;;;;;0.50;0.20;;;;;;;2.60;100.00;152032.53;5018275;28;20477;-75
2022/01/09 06:43:18;;;;;;;0.80;0.30;;;;;;;2.61;100.00;152035.13;4992425;28;20486;-75
2022/01/09 06:45:55;;;;;;;0.97;0.63;;;;;;;2.62;100.00;152038.97;4994500;28;20447;-75
2022/01/09 06:48:31;;;;;;;0.50;0.23;;;;;;;2.62;100.00;152037.72;4981258;28;20493;-75
2022/01/09 06:51:06;;;;;;;0.90;0.43;;;;;;;2.66;100.00;152048.00;5008121;28;20446;-75
2022/01/09 06:53:42;;;;;;;0.93;0.47;;;;;;;2.61;100.00;152035.13;4991820;28;20452;-75
2022/01/09 06:56:17;;;;;;;0.70;0.30;;;;;;;2.59;100.00;152030.00;5001587;28;20455;-75
2022/01/09 06:58:53;;;;;;;1.63;0.47;;;;;;;2.55;100.00;152019.69;4994223;28;20455;-75
2022/01/09 07:01:30;;;;;;;1.10;0.30;;;;;;;2.52;100.00;152011.97;5009437;28;21141;-75
2022/01/09 07:04:06;;;;;;;0.70;0.30;;;;;;;2.51;100.00;152009.41;5010538;28;20981;-75
2022/01/09 07:06:41;;;;;;;0.60;0.33;;;;;;;2.51;100.00;152010.72;5009847;28;20437;-75
2022/01/09 07:09:17;;;;;;;1.03;0.30;;;;;;;2.51;100.00;152009.41;4990612;28;20780;-75
2022/01/09 07:11:52;;;;;;;0.70;0.30;;;;;;;2.46;100.00;151997.84;4994311;28;20442;-75
2022/01/09 07:14:28;;;;;;;0.70;0.40;;;;;;;2.43;100.00;151990.13;5026822;28;20461;-75
2022/01/09 07:17:05;;;;;;;1.27;0.30;;;;;;;2.45;100.00;151996.56;5023741;23;20491;-74
2022/01/09 07:19:40;;;;;;;0.70;0.20;;;;;;;2.47;100.00;152001.69;4959041;28;20505;-75
2022/01/09 07:22:16;;;;;;;0.60;0.30;;;;;;;2.44;100.00;151993.97;4955645;28;20448;-75
2022/01/09 07:24:52;;;;;;;0.50;0.20;;;;;;;2.50;100.00;152008.13;4973785;28;20452;-75
2022/01/09 07:27:27;;;;;;;0.63;0.40;;;;;;;2.47;100.00;152000.41;4971875;28;20456;-76
2022/01/09 07:30:08;;;;;;;1.20;0.40;;;;;;;2.44;100.00;151993.97;4965674;28;20448;-75
2022/01/09 07:32:45;;;;;;;0.90;0.40;;;;;;;2.41;100.00;151984.97;4959885;28;20456;-76
2022/01/09 07:35:21;;;;;;;0.80;0.40;;;;;;;2.40;100.00;151983.72;4973074;28;20460;-76
2022/01/09 07:37:56;;;;;;;1.00;0.50;;;;;;;2.46;100.00;151999.09;4977746;28;20869;-76
2022/01/09 07:40:32;;;;;;;0.70;0.40;;;;;;;2.47;100.00;152001.69;4973460;28;20558;-75
2022/01/09 07:43:07;;;;;;;1.67;0.63;;;;;;;2.51;100.00;152010.72;4973931;28;20452;-76
2022/01/09 07:45:43;;;;;;;1.53;0.80;;;;;;;2.50;100.00;152008.13;4956884;28;20808;-75
2022/01/09 07:48:21;;;;;;;3.57;0.77;;;;;;;2.54;100.00;152017.16;4966793;28;20815;-76
2022/01/09 07:50:56;;;;;;;1.97;1.20;;;;;;;2.58;100.00;152028.72;4958718;28;20483;-76
2022/01/09 07:53:44;;;;;;;4.17;1.33;;;;;;;2.55;100.00;152020.97;4972620;28;20544;-75
2022/01/09 07:56:19;;;;;;;2.73;1.37;;;;;;;2.59;100.00;152030.00;4973938;28;20452;-76
2022/01/09 07:58:55;;;;;;;5.17;1.40;;;;;;;2.57;100.00;152024.88;4958449;28;20443;-76
2022/01/09 08:01:30;;;;;;;6.43;1.30;;;;;;;2.57;100.00;152024.88;4972740;28;20575;-76
2022/01/09 08:04:07;;;;;;;1.47;1.30;;;;;;;2.60;100.00;152032.53;4973283;28;20466;-75
2022/01/09 08:06:43;;;;;;;2.20;1.37;;;;;;;2.65;100.00;152045.44;4958105;28;20863;-76
2022/01/09 08:09:18;;;;;;;1.50;1.23;;;;;;;2.63;100.00;152041.56;4969402;28;20451;-76
2022/01/09 08:11:55;;;;;;;2.40;1.27;;;;;;;2.62;100.00;152038.97;4962931;28;20814;-76
2022/01/09 08:14:31;;;;;;;3.93;1.60;;;;;;;2.62;100.00;152037.72;4956412;28;20456;-75
2022/01/09 08:17:06;;;;;;;3.90;1.30;;;;;;;2.67;100.00;152051.88;4972953;28;20827;-76
2022/01/09 08:19:43;;;;;;;5.73;1.77;;;;;;;2.68;100.00;152054.41;4957121;28;20446;-76
2022/01/09 08:22:19;;;;;;;2.00;1.27;;;;;;;2.69;100.00;152055.72;4963048;28;20459;-76
2022/01/09 08:24:54;;;;;;;3.13;1.17;;;;;;;2.72;100.00;152063.44;4953031;28;20428;-75
2022/01/09 08:27:30;;;;;;;4.53;2.33;;;;;;;2.69;100.00;152055.72;4951580;28;20456;-75
2022/01/09 08:30:07;;;;;;;1.80;1.10;;;;;;;2.71;100.00;152062.16;4951911;28;20442;-76
2022/01/09 08:32:43;;;;;;;2.50;1.03;;;;;;;2.73;100.00;152065.97;4969360;28;20816;-76
2022/01/09 08:35:21;;;;;;;3.40;1.60;;;;;;;2.75;100.00;152071.16;4967743;28;20450;-76
2022/01/09 08:37:56;;;;;;;3.70;1.40;;;;;;;2.71;100.00;152060.84;4970316;28;20872;-76
2022/01/09 08:40:32;;;;;;;2.80;1.33;;;;;;;2.77;100.00;152077.59;4954784;28;20466;-76
2022/01/09 08:43:08;;;;;;;1.30;1.00;;;;;;;2.73;100.00;152065.97;4956436;28;20464;-76
2022/01/09 08:45:43;;;;;;;3.00;1.50;;;;;;;2.80;100.00;152084.03;4971498;28;20464;-76
2022/01/09 08:48:19;;;;;;;1.47;1.20;;;;;;;2.79;100.00;152081.44;4957121;28;20442;-76
2022/01/09 08:50:56;;;;;;;1.80;1.33;;;;;;;2.82;100.00;152089.16;4972333;28;20462;-75
2022/01/09 08:53:32;;;;;;;4.73;1.83;;;;;;;2.85;100.00;152096.88;4972205;28;20444;-76
2022/01/09 08:56:08;;;;;;;3.90;1.37;;;;;;;2.88;100.00;152105.91;4971700;28;20462;-74
2022/01/09 08:58:43;;;;;;;3.33;1.43;;;;;;;2.90;100.00;152109.75;4953014;28;20453;-74
2022/01/09 09:01:19;;;;;;;2.77;1.33;;;;;;;2.90;100.00;152109.75;4968700;28;20470;-75
2022/01/09 09:03:55;;;;;;;3.43;1.30;;;;;;;2.91;100.00;152112.34;4972843;28;20448;-75
2022/01/09 09:06:32;;;;;;;2.90;1.20;;;;;;;2.97;100.00;152127.75;4956620;28;20813;-76
2022/01/09 09:09:07;;;;;;;2.67;1.03;;;;;;;2.96;100.00;152125.19;4970710;28;20448;-76
2022/01/09 09:11:43;;;;;;;2.17;1.13;;;;;;;2.98;100.00;152131.63;4971697;28;20956;-76
2022/01/09 09:14:20;;;;;;;2.27;1.13;;;;;;;3.02;100.00;152140.59;4973938;28;20427;-76
2022/01/09 09:16:56;;;;;;;6.70;1.37;;;;;;;2.96;100.00;152125.19;4957597;28;20570;-76
2022/01/09 09:19:32;;;;;;;2.90;1.40;;;;;;;2.91;100.00;152112.34;4972612;28;20873;-77
2022/01/09 09:22:09;;;;;;;7.63;2.57;;;;;;;2.92;100.00;152114.88;4955061;28;20479;-75
2022/01/09 09:24:45;;;;;;;3.93;1.50;;;;;;;2.92;100.00;152114.88;4970442;28;20997;-76
2022/01/09 09:27:21;;;;;;;6.20;1.17;;;;;;;2.97;100.00;152127.75;4957336;28;20439;-76
2022/01/09 09:29:58;;;;;;;3.27;1.13;;;;;;;3.02;100.00;152140.59;4971748;28;20475;-76
2022/01/09 09:32:34;;;;;;;3.30;1.03;;;;;;;3.08;100.00;152157.34;4972077;28;20439;-76
2022/01/09 09:35:13;;;;;;;2.83;1.30;;;;;;;3.15;100.00;152174.03;4956807;28;20441;-76
2022/01/09 09:37:50;;;;;;;4.83;1.70;;;;;;;3.22;100.00;152190.81;4951487;28;20457;-76
2022/01/09 09:40:26;;;;;;;4.20;1.30;;;;;;;3.29;100.00;152210.09;4980275;28;20790;-76
2022/01/09 09:43:03;;;;;;;4.73;1.37;;;;;;;3.30;100.00;152212.69;4956069;28;20442;-76
2022/01/09 09:45:38;;;;;;;5.23;1.77;;;;;;;3.38;100.00;152232.00;4971267;28;20790;-76
2022/01/09 09:48:14;;;;;;;2.80;1.50;;;;;;;3.36;100.00;152228.09;4956633;28;20446;-76
2022/01/09 09:50:49;;;;;;;1.63;1.20;;;;;;;3.35;100.00;152225.56;4970180;28;20448;-76
2022/01/09 09:53:26;;;;;;;5.10;1.60;;;;;;;3.29;100.00;152210.09;4968845;28;20445;-76
2022/01/09 09:56:02;;;;;;;2.87;1.30;;;;;;;3.29;100.00;152210.09;4956780;28;20817;-76
2022/01/09 09:58:39;;;;;;;2.70;1.57;;;;;;;3.38;100.00;152233.28;4964984;28;20517;-76
2022/01/09 10:01:23;;;;;;;1.93;1.20;;;;;;;3.45;100.00;152251.28;4961439;28;20500;-77
2022/01/09 10:04:01;;;;;;;4.17;1.63;;;;;;;3.56;100.00;152279.63;4957408;28;20521;-76
2022/01/09 10:06:38;;;;;;;2.20;1.13;;;;;;;3.62;100.00;152295.06;4949343;28;20453;-76
2022/01/09 10:09:19;;;;;;;5.10;2.63;;;;;;;3.66;100.00;152305.34;4966086;28;20801;-77
2022/01/09 10:11:56;;;;;;;3.93;1.20;;;;;;;3.78;100.00;152334.97;4970831;28;20461;-75
2022/01/09 10:14:34;;;;;;;2.13;1.40;;;;;;;3.74;100.00;152324.66;4967507;28;20556;-77
2022/01/09 10:17:12;;;;;;;4.00;1.80;;;;;;;3.82;100.00;152343.97;4967582;28;20465;-77
2022/01/09 10:19:50;;;;;;;1.87;1.10;;;;;;;3.77;100.00;152332.38;4965992;28;20447;-77
2022/01/09 10:22:28;;;;;;;5.00;1.20;;;;;;;3.75;100.00;152325.94;4968680;28;20537;-77
2022/01/09 10:25:25;;;;;;;3.50;1.87;;;;;;;3.79;100.00;152337.53;4963196;28;20440;-76
2022/01/09 10:28:06;;;;;;;2.37;1.60;;;;;;;3.78;100.00;152333.69;4970186;28;20457;-75
2022/01/09 10:30:44;;;;;;;1.60;1.40;;;;;;;3.78;100.00;152334.97;4975808;28;20442;-77
2022/01/09 10:33:21;;;;;;;2.43;1.33;;;;;;;3.79;100.00;152336.22;4965714;28;20506;-77
2022/01/09 10:35:57;;;;;;;3.60;1.40;;;;;;;3.87;100.00;152356.81;4965987;28;20458;-76
2022/01/09 10:38:32;;;;;;;2.87;1.40;;;;;;;3.91;100.00;152367.16;4963383;28;20446;-81
2022/01/09 10:41:09;;;;;;;3.10;1.10;;;;;;;3.92;100.00;152369.75;4969654;28;20489;-76
2022/01/09 10:43:45;;;;;;;3.37;1.30;;;;;;;3.98;100.00;152386.47;4965401;28;20971;-76
2022/01/09 10:46:30;;;;;;;5.57;1.53;;;;;;;4.00;100.00;152391.59;4949961;28;20587;-75
2022/01/09 10:49:06;;;;;;;2.50;1.30;;;;;;;3.97;100.00;152382.63;4965910;28;20442;-75
2022/01/09 10:51:42;;;;;;;3.40;1.67;;;;;;;3.92;100.00;152371.00;4964973;28;20432;-75
2022/01/09 10:54:30;;;;;;;3.00;1.60;;;;;;;3.92;100.00;152369.75;4966930;28;20458;-75
2022/01/09 10:57:12;;;;;;;2.40;1.37;;;;;;;3.87;100.00;152356.81;4965479;28;20493;-76
2022/01/09 10:59:47;;;;;;;6.30;1.67;;;;;;;3.90;100.00;152364.56;4963723;28;20449;-76
2022/01/09 11:02:23;;;;;;;3.60;1.90;;;;;;;3.92;100.00;152369.75;4970228;28;20474;-76
2022/01/09 11:04:59;;;;;;;3.03;1.30;;;;;;;3.92;100.00;152369.75;4964530;28;20884;-76
2022/01/09 11:07:35;;;;;;;3.60;2.73;;;;;;;3.92;100.00;152371.00;4967286;28;20450;-76
2022/01/09 11:10:12;;;;;;;4.27;1.87;;;;;;;3.92;100.00;152369.75;4951744;28;20959;-75
2022/01/09 11:12:50;;;;;;;2.67;1.60;;;;;;;3.88;100.00;152359.44;4965953;28;20450;-76
2022/01/09 11:15:28;;;;;;;3.03;1.23;;;;;;;3.90;100.00;152364.56;4948917;28;20517;-75
2022/01/09 11:18:04;;;;;;;6.33;1.37;;;;;;;3.92;100.00;152369.75;4968345;28;20473;-76
2022/01/09 11:20:40;;;;;;;4.53;1.37;;;;;;;3.96;100.00;152380.03;4966433;28;20435;-76
2022/01/09 11:23:16;;;;;;;3.17;1.60;;;;;;;4.04;100.00;152401.94;4959383;28;20847;-76
2022/01/09 11:25:53;;;;;;;6.23;1.83;;;;;;;4.06;100.00;152407.06;4974673;28;20528;-76
2022/01/09 11:28:36;;;;;;;2.33;1.40;;;;;;;4.09;100.00;152413.50;4965829;28;20453;-75
2022/01/09 11:31:14;;;;;;;2.73;1.07;;;;;;;4.15;100.00;152428.97;4965745;28;20445;-76
2022/01/09 11:34:01;;;;;;;2.30;1.17;;;;;;;4.19;100.00;152440.56;4968094;28;20442;-75
2022/01/09 11:36:40;;;;;;;2.10;1.40;;;;;;;4.17;100.00;152435.41;4968276;28;20453;-75
2022/01/09 11:39:18;;;;;;;1.83;1.20;;;;;;;4.21;100.00;152444.41;4958441;28;20451;-76
2022/01/09 11:42:06;;;;;;;1.60;1.30;;;;;;;4.17;100.00;152435.41;4966251;28;20806;-76
2022/01/09 11:44:47;;;;;;;2.97;1.10;;;;;;;4.22;100.00;152447.00;4969905;28;20451;-76
2022/01/09 11:47:24;;;;;;;1.60;1.07;;;;;;;4.27;100.00;152459.88;4966077;28;20537;-76
2022/01/09 11:50:08;;;;;;;3.57;1.23;;;;;;;4.33;100.00;152475.34;4966368;28;20470;-76
2022/01/09 11:52:58;;;;;;;2.50;1.40;;;;;;;4.35;100.00;152480.47;4946639;28;20458;-76
2022/01/09 11:55:41;;;;;;;2.30;1.07;;;;;;;4.34;100.00;152476.63;4952845;28;20461;-76
2022/01/09 11:58:20;;;;;;;2.90;1.20;;;;;;;4.31;100.00;152471.44;4947911;28;20454;-76
2022/01/09 12:00:57;;;;;;;2.93;1.70;;;;;;;4.27;99.71;152461.16;4966078;28;20445;-76
2022/01/09 12:03:37;;;;;;;1.70;1.40;;;;;;;4.22;97.97;152448.28;4969805;28;20476;-76
2022/01/09 12:06:16;;;;;;;2.00;1.13;;;;;;;4.21;99.09;152445.69;4962785;28;20495;-75
2022/01/09 12:09:07;;;;;;;2.93;1.67;;;;;;;4.19;99.31;152440.56;4961659;28;20465;-76